Time;durP1;ratioP1;P1;durP2;ratioP2;P2;SDS_P1;SDS_P2;PMS_P1;PMS_P2;Temp;Humidity;BMP_temperature;BMP_pressure;BME280_temperature;BME280_humidity;BME280_pressure;Samples;Min_cycle;Max_cycle;Signal;HPM_P1;HPM_P2
2023/09/08 00:02:21;;;;;;;1.73;0.80;;;16.10;99.90;;;;;;4956559;29;20192;-91
2023/09/08 00:04:52;;;;;;;1.45;0.73;;;16.00;99.90;;;;;;4956836;29;20214;-92
2023/09/08 00:07:23;;;;;;;2.80;0.80;;;16.00;99.90;;;;;;4956359;29;20207;-90
2023/09/08 00:09:54;;;;;;;1.30;0.85;;;16.10;99.90;;;;;;4958743;29;20686;-90
2023/09/08 00:12:27;;;;;;;1.00;0.80;;;16.10;99.90;;;;;;4959965;29;20210;-92
2023/09/08 00:14:58;;;;;;;2.83;0.85;;;16.10;99.90;;;;;;4952341;29;20232;-92
2023/09/08 00:17:29;;;;;;;1.02;0.80;;;16.10;99.90;;;;;;4936025;29;20212;-92
2023/09/08 00:20:01;;;;;;;1.23;0.82;;;16.00;99.90;;;;;;4952197;29;20475;-91
2023/09/08 00:22:32;;;;;;;1.20;0.95;;;16.00;99.90;;;;;;4956341;29;20204;-92
2023/09/08 00:25:03;;;;;;;1.60;0.95;;;15.90;99.90;;;;;;4956379;29;20204;-92
2023/09/08 00:27:36;;;;;;;1.15;0.95;;;16.00;99.90;;;;;;4970135;28;20200;-92
2023/09/08 00:30:08;;;;;;;3.95;1.02;;;16.10;99.90;;;;;;4973728;28;20203;-89
2023/09/08 00:32:40;;;;;;;2.10;0.90;;;16.10;99.90;;;;;;4936960;29;20201;-91
2023/09/08 00:35:13;;;;;;;2.25;0.88;;;16.00;99.90;;;;;;4941057;29;20246;-92
2023/09/08 00:37:45;;;;;;;3.75;1.73;;;15.90;99.90;;;;;;4955770;29;20204;-91
2023/09/08 00:40:15;;;;;;;1.52;0.73;;;15.80;99.90;;;;;;4947509;29;20200;-91
2023/09/08 00:42:48;;;;;;;2.90;0.65;;;15.60;99.90;;;;;;4973814;29;20675;-91
2023/09/08 00:45:19;;;;;;;2.63;0.80;;;15.60;99.90;;;;;;4956200;29;20678;-91
2023/09/08 00:47:50;;;;;;;1.88;0.60;;;15.50;99.90;;;;;;4954815;29;20210;-92
2023/09/08 00:50:21;;;;;;;3.33;0.82;;;15.50;99.90;;;;;;4954915;28;20210;-91
2023/09/08 00:52:53;;;;;;;0.98;0.60;;;15.50;99.90;;;;;;4954964;29;20191;-90
2023/09/08 00:55:24;;;;;;;2.15;0.50;;;15.40;99.90;;;;;;4955074;29;20232;-91
2023/09/08 00:57:58;;;;;;;1.88;0.60;;;15.50;99.90;;;;;;4954940;29;20208;-90
2023/09/08 01:00:29;;;;;;;1.02;0.73;;;15.40;99.90;;;;;;4954692;29;20231;-93
2023/09/08 01:03:00;;;;;;;1.73;0.77;;;15.40;99.90;;;;;;4955349;29;20204;-93
2023/09/08 01:05:30;;;;;;;1.25;0.60;;;15.50;99.90;;;;;;4943412;29;20212;-93
2023/09/08 01:08:04;;;;;;;3.20;0.80;;;15.70;99.90;;;;;;4935459;29;20698;-91
2023/09/08 01:10:36;;;;;;;3.88;0.77;;;15.70;99.90;;;;;;4938848;29;20192;-88
2023/09/08 01:13:11;;;;;;;0.57;0.55;;;15.80;99.90;;;;;;4954761;29;20199;-90
2023/09/08 01:15:42;;;;;;;1.17;0.57;;;15.90;99.90;;;;;;4954729;29;20224;-91
2023/09/08 01:18:13;;;;;;;0.88;0.50;;;15.90;99.90;;;;;;4955196;29;20207;-91
2023/09/08 01:21:11;;;;;;;1.85;0.45;;;15.90;99.90;;;;;;4954540;29;20207;-91
2023/09/08 01:23:59;;;;;;;0.45;0.40;;;15.90;99.90;;;;;;4954157;28;20231;-91
2023/09/08 01:26:39;;;;;;;2.22;0.40;;;16.00;99.90;;;;;;4954238;29;20218;-92
2023/09/08 01:29:11;;;;;;;0.80;0.40;;;16.00;99.90;;;;;;4935516;29;20251;-92
2023/09/08 01:31:42;;;;;;;0.40;0.38;;;16.00;99.90;;;;;;4935276;29;20207;-91
2023/09/08 01:34:14;;;;;;;2.60;0.50;;;16.10;99.90;;;;;;4963507;28;20222;-91
2023/09/08 01:36:45;;;;;;;0.65;0.35;;;16.00;99.90;;;;;;4976954;28;20209;-91
2023/09/08 01:39:16;;;;;;;1.50;0.40;;;16.10;99.90;;;;;;4966153;28;20215;-91
2023/09/08 01:41:50;;;;;;;1.52;0.40;;;16.10;99.90;;;;;;4942509;29;20188;-92
2023/09/08 01:44:21;;;;;;;0.75;0.43;;;16.20;99.90;;;;;;4947866;29;20210;-91
2023/09/08 01:46:56;;;;;;;1.65;0.50;;;16.30;99.90;;;;;;4967954;28;20206;-91
2023/09/08 01:49:27;;;;;;;0.80;0.50;;;16.40;99.90;;;;;;4960907;29;20191;-91
2023/09/08 01:51:58;;;;;;;0.57;0.47;;;16.50;99.90;;;;;;4958063;29;20200;-89
2023/09/08 01:54:29;;;;;;;2.03;0.65;;;16.60;99.90;;;;;;4937033;29;20210;-91
2023/09/08 01:57:02;;;;;;;0.95;0.40;;;16.70;99.90;;;;;;4938434;28;20690;-91
2023/09/08 01:59:33;;;;;;;2.08;0.40;;;16.80;99.90;;;;;;4934492;29;20304;-91
2023/09/08 02:02:04;;;;;;;1.85;0.40;;;17.00;99.90;;;;;;4948859;29;20200;-90
2023/09/08 02:04:34;;;;;;;0.50;0.30;;;17.20;99.90;;;;;;4953950;29;20200;-90
2023/09/08 02:07:12;;;;;;;0.60;0.30;;;17.30;99.90;;;;;;4953508;29;20215;-90
2023/09/08 02:09:43;;;;;;;1.23;0.35;;;17.30;99.90;;;;;;4954009;29;20195;-90
2023/09/08 02:12:16;;;;;;;0.95;0.40;;;17.20;99.90;;;;;;4935165;29;20200;-91
2023/09/08 02:14:47;;;;;;;0.93;0.30;;;17.20;99.90;;;;;;4948137;29;20234;-90
2023/09/08 02:17:18;;;;;;;0.20;0.20;;;17.10;99.90;;;;;;4953195;29;20217;-90
2023/09/08 02:19:49;;;;;;;1.42;0.40;;;17.10;99.90;;;;;;4952709;29;20199;-90
2023/09/08 02:22:20;;;;;;;0.52;0.30;;;17.10;99.90;;;;;;4953181;29;20204;-90
2023/09/08 02:24:51;;;;;;;1.02;0.50;;;17.10;99.90;;;;;;4953753;28;20251;-91
2023/09/08 02:27:24;;;;;;;0.60;0.40;;;17.00;99.90;;;;;;4953314;29;20196;-91
2023/09/08 02:29:55;;;;;;;0.68;0.30;;;17.00;99.90;;;;;;4946477;29;20205;-89
2023/09/08 02:32:38;;;;;;;0.65;0.35;;;17.10;99.90;;;;;;4934197;29;20196;-91
2023/09/08 02:35:10;;;;;;;0.68;0.40;;;16.90;99.90;;;;;;4816591;29;3491848;-90
2023/09/08 02:37:41;;;;;;;0.20;0.20;;;16.90;99.90;;;;;;4935301;29;20211;-90
2023/09/08 02:40:12;;;;;;;0.88;0.40;;;16.90;99.90;;;;;;4935032;29;20212;-90
2023/09/08 02:42:45;;;;;;;0.60;0.40;;;16.80;99.90;;;;;;4934793;29;20205;-89
2023/09/08 02:45:16;;;;;;;1.48;0.40;;;16.90;99.90;;;;;;4952134;29;20668;-90
2023/09/08 02:47:48;;;;;;;1.38;0.35;;;17.00;99.90;;;;;;4946239;29;20209;-90
2023/09/08 02:50:19;;;;;;;0.40;0.40;;;17.00;99.90;;;;;;4940370;29;20296;-92
2023/09/08 02:52:50;;;;;;;0.40;0.40;;;17.00;99.90;;;;;;4963005;29;20192;-90
2023/09/08 02:55:21;;;;;;;0.88;0.40;;;17.10;99.90;;;;;;4962821;29;20236;-90
2023/09/08 02:57:53;;;;;;;1.88;0.30;;;17.00;99.90;;;;;;4954849;29;20203;-91
2023/09/08 03:00:24;;;;;;;1.25;0.55;;;16.90;99.90;;;;;;4955068;29;20208;-91
2023/09/08 03:02:55;;;;;;;1.13;0.40;;;16.90;99.90;;;;;;4954675;29;20200;-92
2023/09/08 03:05:26;;;;;;;0.60;0.30;;;17.10;99.90;;;;;;4936006;29;20209;-90
2023/09/08 03:07:57;;;;;;;0.30;0.30;;;17.30;99.90;;;;;;4934094;29;20204;-91
2023/09/08 03:10:28;;;;;;;1.38;0.60;;;17.30;99.90;;;;;;4948668;29;20672;-91
2023/09/08 03:13:02;;;;;;;0.75;0.40;;;17.30;99.90;;;;;;4938293;29;20207;-91
2023/09/08 03:15:34;;;;;;;0.95;0.50;;;17.30;99.90;;;;;;4970559;28;20223;-91
2023/09/08 03:18:05;;;;;;;0.77;0.50;;;17.30;99.90;;;;;;4971692;28;20195;-90
2023/09/08 03:20:37;;;;;;;2.33;0.30;;;17.20;99.90;;;;;;4970685;28;20262;-91
2023/09/08 03:23:08;;;;;;;0.70;0.50;;;17.30;99.90;;;;;;4960074;28;20232;-89
2023/09/08 03:25:38;;;;;;;1.38;0.30;;;17.50;99.90;;;;;;4964787;29;20287;-90
2023/09/08 03:28:11;;;;;;;2.25;0.38;;;17.90;99.90;;;;;;4947054;29;20284;-90
2023/09/08 03:30:43;;;;;;;0.43;0.40;;;18.10;99.90;;;;;;4944006;29;20251;-89
2023/09/08 03:33:14;;;;;;;2.97;0.35;;;18.10;99.90;;;;;;4957444;28;20639;-90
2023/09/08 03:35:45;;;;;;;1.60;0.43;;;18.00;99.90;;;;;;4976271;28;20301;-90
2023/09/08 03:38:15;;;;;;;0.30;0.30;;;18.10;99.90;;;;;;4965610;28;20715;-89
2023/09/08 03:40:46;;;;;;;0.47;0.30;;;18.10;99.90;;;;;;4960730;29;20305;-90
2023/09/08 03:43:20;;;;;;;0.88;0.30;;;18.40;99.90;;;;;;4970908;29;20231;-90
2023/09/08 03:45:51;;;;;;;1.15;0.32;;;18.60;99.90;;;;;;4938229;29;20264;-91
2023/09/08 03:48:22;;;;;;;0.93;0.30;;;18.70;99.90;;;;;;4937863;29;20215;-91
2023/09/08 03:50:54;;;;;;;1.98;0.32;;;18.70;99.90;;;;;;4937101;29;20204;-91
2023/09/08 03:53:25;;;;;;;0.68;0.28;;;18.90;99.90;;;;;;4937485;29;20228;-92
2023/09/08 03:55:56;;;;;;;0.22;0.22;;;19.10;99.90;;;;;;4937869;29;20228;-90
2023/09/08 03:58:28;;;;;;;0.40;0.25;;;19.20;99.90;;;;;;4950798;29;20216;-91
2023/09/08 04:01:00;;;;;;;0.75;0.20;;;19.30;99.90;;;;;;4952705;29;20287;-89
2023/09/08 04:03:30;;;;;;;1.20;0.60;;;19.40;99.90;;;;;;4956101;29;20204;-90
2023/09/08 04:06:02;;;;;;;1.42;0.47;;;19.40;99.90;;;;;;4956423;29;20243;-91
2023/09/08 04:08:33;;;;;;;1.20;0.55;;;19.40;99.90;;;;;;4956189;29;20404;-90
2023/09/08 04:11:04;;;;;;;2.35;0.40;;;19.40;99.90;;;;;;4955188;29;20259;-90
2023/09/08 04:13:37;;;;;;;1.15;0.40;;;19.50;99.90;;;;;;4936836;29;20208;-90
2023/09/08 04:16:09;;;;;;;0.40;0.25;;;19.50;99.20;;;;;;4938412;29;20208;-90
2023/09/08 04:18:40;;;;;;;1.48;0.40;;;19.50;91.20;;;;;;4955804;29;20730;-89
2023/09/08 04:21:11;;;;;;;0.43;0.20;;;19.40;61.00;;;;;;4955861;29;20251;-90
2023/09/08 04:23:43;;;;;;;2.65;0.50;;;19.50;55.20;;;;;;4955553;28;20322;-89
2023/09/08 04:26:14;;;;;;;1.33;0.30;;;19.30;50.50;;;;;;4953791;28;20212;-87
2023/09/08 04:28:47;;;;;;;0.32;0.22;;;19.40;53.80;;;;;;4949802;29;20200;-89
2023/09/08 04:31:18;;;;;;;2.15;0.30;;;19.40;53.70;;;;;;4937749;29;20292;-89
2023/09/08 04:33:48;;;;;;;1.55;0.28;;;19.40;50.30;;;;;;4940402;29;20220;-89
2023/09/08 04:36:19;;;;;;;0.25;0.20;;;19.50;50.70;;;;;;4954944;29;20215;-90
2023/09/08 04:38:51;;;;;;;1.95;0.38;;;19.50;51.00;;;;;;4956327;29;20638;-89
2023/09/08 04:41:21;;;;;;;0.88;0.40;;;19.50;48.20;;;;;;4957131;29;20291;-90
2023/09/08 04:43:55;;;;;;;0.63;0.25;;;19.50;47.50;;;;;;4974043;28;20202;-90
2023/09/08 04:46:26;;;;;;;0.85;0.30;;;19.70;49.50;;;;;;4955216;28;20208;-91
2023/09/08 04:48:57;;;;;;;0.77;0.28;;;19.70;48.50;;;;;;4938744;29;20239;-90
2023/09/08 04:51:28;;;;;;;0.85;0.40;;;19.80;47.50;;;;;;4955061;29;20290;-91
2023/09/08 04:53:59;;;;;;;1.90;0.20;;;19.90;48.30;;;;;;4954579;29;20204;-92
2023/09/08 04:56:30;;;;;;;0.73;0.20;;;19.80;46.60;;;;;;4955215;29;20248;-90
2023/09/08 04:59:03;;;;;;;2.78;0.40;;;19.80;46.60;;;;;;4955523;29;20210;-91
2023/09/08 05:01:36;;;;;;;1.90;0.40;;;20.00;47.20;;;;;;4957453;29;20296;-90
2023/09/08 05:04:07;;;;;;;0.98;0.30;;;20.10;46.90;;;;;;4944628;29;20227;-89
2023/09/08 05:06:38;;;;;;;2.25;0.25;;;20.10;46.30;;;;;;4942432;29;20264;-89
2023/09/08 05:09:09;;;;;;;2.28;0.13;;;20.10;44.70;;;;;;4959354;29;20199;-88
2023/09/08 05:11:40;;;;;;;1.17;0.20;;;19.90;44.20;;;;;;4960985;29;20295;-88
2023/09/08 05:14:13;;;;;;;0.20;0.20;;;19.90;44.20;;;;;;4955850;29;20227;-91
2023/09/08 05:16:49;;;;;;;0.28;0.10;;;19.80;42.90;;;;;;4954766;29;20236;-91
2023/09/08 05:19:20;;;;;;;1.23;0.20;;;19.80;43.70;;;;;;4952390;29;20235;-91
2023/09/08 05:21:52;;;;;;;1.30;0.20;;;19.80;43.60;;;;;;4940386;29;20283;-90
2023/09/08 05:24:25;;;;;;;0.52;0.20;;;19.90;44.80;;;;;;4946321;29;20210;-90
2023/09/08 05:26:56;;;;;;;2.40;0.32;;;19.80;43.30;;;;;;4953384;28;20240;-86
2023/09/08 05:29:29;;;;;;;0.57;0.20;;;19.70;43.40;;;;;;4953261;28;20576;-86
2023/09/08 05:32:00;;;;;;;0.57;0.30;;;19.80;44.60;;;;;;4955222;29;20192;-86
2023/09/08 05:34:31;;;;;;;3.70;0.50;;;19.80;45.20;;;;;;4955767;29;20314;-89
2023/09/08 05:37:02;;;;;;;0.73;0.20;;;19.70;44.20;;;;;;4947323;28;20315;-88
2023/09/08 05:39:33;;;;;;;0.35;0.20;;;19.70;42.70;;;;;;4951467;29;20287;-88
2023/09/08 05:42:03;;;;;;;1.13;0.20;;;19.70;44.90;;;;;;4954917;29;20367;-89
2023/09/08 05:44:38;;;;;;;0.95;0.20;;;19.80;44.30;;;;;;4959565;29;20296;-88
2023/09/08 05:47:08;;;;;;;0.13;0.08;;;19.90;45.00;;;;;;4945741;29;20291;-88
2023/09/08 05:49:40;;;;;;;2.08;0.10;;;19.90;46.20;;;;;;4935812;29;20205;-89
2023/09/08 05:52:11;;;;;;;0.50;0.20;;;20.00;46.40;;;;;;4935762;29;20203;-88
2023/09/08 05:54:42;;;;;;;0.77;0.20;;;20.00;46.10;;;;;;4937189;29;20211;-89
2023/09/08 05:57:13;;;;;;;2.83;0.30;;;19.80;46.60;;;;;;4942206;29;20221;-89
2023/09/08 05:59:46;;;;;;;0.60;0.30;;;19.80;46.50;;;;;;4951844;29;20275;-88
2023/09/08 06:02:17;;;;;;;0.30;0.10;;;19.90;46.80;;;;;;4955196;29;20192;-89
2023/09/08 06:04:47;;;;;;;0.20;0.20;;;20.10;48.00;;;;;;4954775;29;20295;-89
2023/09/08 06:07:18;;;;;;;0.93;0.20;;;20.30;47.60;;;;;;4954710;29;20214;-89
2023/09/08 06:09:49;;;;;;;2.35;0.32;;;20.40;47.70;;;;;;4957840;29;20287;-89
2023/09/08 06:12:20;;;;;;;1.77;0.30;;;20.40;46.20;;;;;;4967690;29;20228;-89
2023/09/08 06:14:53;;;;;;;0.50;0.20;;;20.00;47.40;;;;;;4955716;29;20287;-88
2023/09/08 06:17:24;;;;;;;0.73;0.20;;;19.60;48.20;;;;;;4954274;29;20339;-89
2023/09/08 06:19:55;;;;;;;0.47;0.20;;;19.40;47.80;;;;;;4953181;29;20180;-88
2023/09/08 06:22:25;;;;;;;0.25;0.20;;;19.20;48.70;;;;;;4944149;29;20525;-87
2023/09/08 06:24:56;;;;;;;1.02;0.35;;;19.10;49.50;;;;;;4934820;29;20255;-88
2023/09/08 06:27:28;;;;;;;0.85;0.30;;;19.00;50.50;;;;;;4949353;29;20303;-88
2023/09/08 06:30:00;;;;;;;0.32;0.20;;;19.00;50.10;;;;;;4939713;28;20204;-88
2023/09/08 06:32:32;;;;;;;1.45;0.55;;;18.90;50.40;;;;;;4951964;29;20566;-88
2023/09/08 06:35:04;;;;;;;0.30;0.20;;;19.00;52.10;;;;;;4951600;29;20723;-89
2023/09/08 06:37:39;;;;;;;0.55;0.25;;;18.90;51.40;;;;;;4941166;29;20232;-87
2023/09/08 06:40:11;;;;;;;1.20;0.25;;;18.90;52.30;;;;;;4935207;29;20232;-87
2023/09/08 06:42:43;;;;;;;0.32;0.20;;;18.80;51.80;;;;;;4937038;29;20579;-90
2023/09/08 06:45:16;;;;;;;2.30;0.20;;;18.70;53.00;;;;;;4945879;29;20304;-88
2023/09/08 06:47:49;;;;;;;2.65;0.38;;;18.80;53.30;;;;;;4931994;29;20200;-88
2023/09/08 06:50:20;;;;;;;1.13;0.30;;;18.80;54.00;;;;;;4946888;29;20208;-88
2023/09/08 06:52:52;;;;;;;0.80;0.20;;;19.00;54.80;;;;;;4939766;29;20239;-88
2023/09/08 06:55:24;;;;;;;1.38;0.15;;;19.10;54.80;;;;;;4953991;29;20283;-89
2023/09/08 06:57:55;;;;;;;0.75;0.40;;;19.10;55.70;;;;;;4954486;29;20699;-89
2023/09/08 07:00:29;;;;;;;1.88;0.38;;;19.10;56.10;;;;;;4952501;29;20202;-88
2023/09/08 07:03:02;;;;;;;2.22;0.38;;;19.10;56.30;;;;;;4942113;29;20200;-89
2023/09/08 07:05:32;;;;;;;1.25;0.50;;;18.80;57.50;;;;;;4954981;29;20643;-90
2023/09/08 07:08:03;;;;;;;0.25;0.25;;;18.40;59.00;;;;;;4938387;29;20268;-92
2023/09/08 07:10:35;;;;;;;0.57;0.38;;;18.30;59.20;;;;;;4946568;29;20192;-93
2023/09/08 07:13:06;;;;;;;0.57;0.40;;;18.20;59.40;;;;;;4955107;29;20200;-91
2023/09/08 07:15:39;;;;;;;0.45;0.40;;;18.00;60.20;;;;;;4954766;29;20185;-91
2023/09/08 07:18:10;;;;;;;1.17;0.80;;;17.90;62.30;;;;;;4973583;29;20232;-93
2023/09/08 07:20:41;;;;;;;0.60;0.43;;;17.90;63.20;;;;;;4944873;29;20217;-93
2023/09/08 07:23:12;;;;;;;0.20;0.20;;;17.90;64.10;;;;;;4938871;29;20207;-92
2023/09/08 07:25:47;;;;;;;1.23;0.40;;;17.60;64.80;;;;;;4942315;29;20715;-93
2023/09/08 07:28:19;;;;;;;0.73;0.38;;;17.40;66.10;;;;;;4958794;29;20264;-93
2023/09/08 07:30:55;;;;;;;1.95;1.30;;;17.40;67.50;;;;;;4947407;28;20204;-90
2023/09/08 07:33:25;;;;;;;0.93;0.50;;;17.30;69.20;;;;;;4956807;29;20238;-92
2023/09/08 07:35:57;;;;;;;0.30;0.20;;;17.30;69.10;;;;;;4956040;29;20210;-93
2023/09/08 07:38:28;;;;;;;0.50;0.50;;;17.20;70.50;;;;;;4937947;29;20323;-91
2023/09/08 07:40:59;;;;;;;0.40;0.40;;;17.20;72.20;;;;;;4938657;29;20579;-94
2023/09/08 07:43:31;;;;;;;1.00;0.90;;;17.20;74.60;;;;;;4942915;29;20204;-93
2023/09/08 07:46:05;;;;;;;1.20;0.50;;;17.20;75.60;;;;;;4965044;29;20202;-92
2023/09/08 07:48:36;;;;;;;3.45;0.88;;;17.10;76.70;;;;;;4954072;29;20412;-85
2023/09/08 07:51:07;;;;;;;1.02;0.70;;;16.90;76.60;;;;;;4956119;29;20198;-92
2023/09/08 07:53:38;;;;;;;0.30;0.20;;;16.90;79.30;;;;;;4948056;29;20211;-94
2023/09/08 07:56:08;;;;;;;0.52;0.30;;;16.80;78.90;;;;;;4939350;29;20192;-94
2023/09/08 07:58:42;;;;;;;0.60;0.50;;;16.70;81.00;;;;;;4939628;29;20364;-92
2023/09/08 08:01:17;;;;;;;0.60;0.60;;;16.80;81.80;;;;;;4944962;29;20740;-94
2023/09/08 08:03:48;;;;;;;0.35;0.22;;;16.70;81.80;;;;;;4959035;29;20253;-93
2023/09/08 08:06:20;;;;;;;0.30;0.30;;;16.60;82.80;;;;;;4959228;29;20278;-93
2023/09/08 08:08:53;;;;;;;1.05;0.55;;;16.50;84.20;;;;;;4958668;29;20211;-95
2023/09/08 08:11:26;;;;;;;0.98;0.60;;;16.50;85.20;;;;;;4940970;28;20210;-93
2023/09/08 08:14:00;;;;;;;0.40;0.40;;;16.60;86.80;;;;;;4939141;29;20313;-94
2023/09/08 08:16:34;;;;;;;0.50;0.30;;;16.60;86.90;;;;;;4939058;29;20211;-94
2023/09/08 08:19:05;;;;;;;3.00;0.43;;;16.50;87.50;;;;;;4938969;29;20232;-94
2023/09/08 08:21:37;;;;;;;0.40;0.40;;;16.40;87.10;;;;;;4946797;29;20210;-93
2023/09/08 08:24:08;;;;;;;0.50;0.50;;;16.50;87.20;;;;;;4958228;29;20262;-93
2023/09/08 08:26:39;;;;;;;0.65;0.50;;;16.40;86.40;;;;;;4953492;29;20208;-94
2023/09/08 08:29:10;;;;;;;3.03;0.57;;;16.30;87.90;;;;;;4955432;29;20298;-93
2023/09/08 08:31:42;;;;;;;0.50;0.40;;;16.30;88.00;;;;;;4957227;29;20196;-94
2023/09/08 08:34:13;;;;;;;2.45;0.70;;;16.10;88.60;;;;;;4962567;29;20345;-92
2023/09/08 08:36:44;;;;;;;0.60;0.60;;;16.00;86.80;;;;;;4959559;29;20208;-91
2023/09/08 08:39:15;;;;;;;0.85;0.40;;;16.00;87.70;;;;;;4956522;29;20210;-90
2023/09/08 08:41:56;;;;;;;1.10;0.50;;;16.00;85.80;;;;;;4956304;29;20214;-92
2023/09/08 08:44:30;;;;;;;0.50;0.30;;;16.00;87.50;;;;;;4929320;29;20239;-92
2023/09/08 08:47:05;;;;;;;1.15;0.90;;;15.90;84.80;;;;;;4938286;29;20578;-91
2023/09/08 08:49:36;;;;;;;1.08;0.82;;;15.90;86.30;;;;;;4936875;29;20201;-92
2023/09/08 08:52:08;;;;;;;0.60;0.50;;;15.90;84.80;;;;;;4936877;29;20205;-92
2023/09/08 08:54:42;;;;;;;2.05;0.45;;;15.90;83.60;;;;;;4937363;29;20204;-91
2023/09/08 08:57:13;;;;;;;0.40;0.40;;;15.80;84.20;;;;;;4937351;29;20585;-92
2023/09/08 08:59:46;;;;;;;0.50;0.50;;;15.80;84.80;;;;;;4920618;29;20201;-93
2023/09/08 09:02:19;;;;;;;0.70;0.70;;;15.70;84.20;;;;;;4950955;29;20202;-94
2023/09/08 09:04:52;;;;;;;0.70;0.50;;;15.80;85.00;;;;;;4958393;29;20267;-93
2023/09/08 09:07:23;;;;;;;0.50;0.50;;;15.80;85.60;;;;;;4958695;29;20196;-92
2023/09/08 09:10:00;;;;;;;1.13;0.60;;;15.70;84.80;;;;;;4941990;29;20347;-94
2023/09/08 09:12:31;;;;;;;1.10;0.50;;;15.70;86.00;;;;;;4956761;29;20223;-92
2023/09/08 09:15:04;;;;;;;1.20;0.60;;;15.70;86.30;;;;;;4955113;29;20300;-93
2023/09/08 09:17:44;;;;;;;0.77;0.73;;;15.80;87.20;;;;;;4950908;29;20224;-92
2023/09/08 09:20:20;;;;;;;0.60;0.47;;;15.80;86.80;;;;;;4937270;29;20252;-92
2023/09/08 09:22:54;;;;;;;0.65;0.40;;;15.70;86.70;;;;;;4936274;29;20224;-93
2023/09/08 09:25:29;;;;;;;0.70;0.50;;;15.70;88.50;;;;;;4936304;29;20196;-92
2023/09/08 09:28:02;;;;;;;0.60;0.32;;;15.60;89.80;;;;;;4941097;29;20254;-92
2023/09/08 09:30:50;;;;;;;0.68;0.38;;;15.50;90.80;;;;;;4949896;29;20200;-91
2023/09/08 09:33:25;;;;;;;0.80;0.50;;;15.50;90.50;;;;;;4948115;28;20273;-92
2023/09/08 09:35:59;;;;;;;0.82;0.40;;;15.50;90.60;;;;;;4958078;28;20734;-92
2023/09/08 09:38:38;;;;;;;0.73;0.50;;;15.50;90.50;;;;;;4954811;29;20326;-93
2023/09/08 09:41:09;;;;;;;1.25;0.52;;;15.40;90.60;;;;;;4955243;29;20210;-93
2023/09/08 09:43:40;;;;;;;1.05;0.50;;;15.40;91.10;;;;;;4954861;29;20675;-92
2023/09/08 09:46:12;;;;;;;0.77;0.70;;;15.50;91.40;;;;;;4955858;29;20223;-92
2023/09/08 09:48:45;;;;;;;0.85;0.47;;;15.50;91.50;;;;;;4956747;29;20204;-93
2023/09/08 09:51:23;;;;;;;0.52;0.32;;;15.60;92.10;;;;;;4961715;29;20208;-91
2023/09/08 09:53:54;;;;;;;0.82;0.50;;;15.60;92.60;;;;;;4970159;29;20256;-92
2023/09/08 09:56:27;;;;;;;0.60;0.50;;;15.70;92.50;;;;;;4958688;28;20234;-91
2023/09/08 09:58:58;;;;;;;0.88;0.60;;;15.60;92.40;;;;;;4957594;29;20753;-93
2023/09/08 10:01:29;;;;;;;2.67;0.65;;;15.60;92.60;;;;;;4957426;29;20203;-92
2023/09/08 10:04:03;;;;;;;0.88;0.57;;;15.60;92.60;;;;;;4964192;29;20211;-91
2023/09/08 10:06:35;;;;;;;0.95;0.55;;;15.50;92.30;;;;;;4966532;29;20202;-92
2023/09/08 10:09:08;;;;;;;1.80;0.52;;;15.50;93.40;;;;;;4949491;29;20254;-92
2023/09/08 10:11:44;;;;;;;0.80;0.40;;;15.40;92.80;;;;;;4935802;29;20579;-92
2023/09/08 10:14:16;;;;;;;0.75;0.50;;;15.30;92.90;;;;;;4938071;29;20196;-90
2023/09/08 10:16:49;;;;;;;0.40;0.20;;;15.40;92.90;;;;;;4952897;29;20219;-91
2023/09/08 10:19:23;;;;;;;0.65;0.50;;;15.30;92.80;;;;;;4962117;29;20302;-92
2023/09/08 10:21:57;;;;;;;1.38;0.57;;;15.30;93.00;;;;;;4955953;28;20210;-91
2023/09/08 10:24:29;;;;;;;0.95;0.60;;;15.30;93.30;;;;;;4957742;29;20678;-92
2023/09/08 10:27:09;;;;;;;1.65;1.38;;;15.30;93.60;;;;;;4957974;29;20210;-92
2023/09/08 10:29:40;;;;;;;1.73;1.23;;;15.30;94.60;;;;;;4958363;29;20204;-91
2023/09/08 10:32:12;;;;;;;1.67;0.70;;;15.40;94.30;;;;;;4958213;29;20196;-93
2023/09/08 10:34:46;;;;;;;0.90;0.60;;;15.30;94.40;;;;;;4964345;29;20232;-92
2023/09/08 10:37:24;;;;;;;0.70;0.52;;;15.30;94.80;;;;;;4978007;28;20203;-91
2023/09/08 10:39:55;;;;;;;0.57;0.57;;;15.30;95.70;;;;;;4960933;28;20231;-91
2023/09/08 10:42:28;;;;;;;0.57;0.40;;;15.30;96.50;;;;;;4957510;29;20568;-91
2023/09/08 10:45:07;;;;;;;0.65;0.40;;;15.30;96.00;;;;;;4958512;29;20200;-92
2023/09/08 10:47:58;;;;;;;1.25;0.55;;;15.30;96.10;;;;;;4958013;29;20631;-93
2023/09/08 10:50:37;;;;;;;1.55;0.60;;;15.10;95.60;;;;;;4957655;29;20271;-92
2023/09/08 10:53:17;;;;;;;1.08;0.57;;;15.10;96.40;;;;;;4960639;29;20203;-93
2023/09/08 10:55:53;;;;;;;1.40;0.60;;;15.00;96.50;;;;;;4956381;29;20245;-93
2023/09/08 10:58:33;;;;;;;0.93;0.60;;;15.00;97.60;;;;;;4958090;29;20227;-92
2023/09/08 11:01:04;;;;;;;1.55;0.60;;;15.00;97.50;;;;;;4941902;29;20236;-92
2023/09/08 11:03:49;;;;;;;0.80;0.60;;;15.00;98.40;;;;;;4938717;29;20664;-92
2023/09/08 11:06:31;;;;;;;1.05;0.57;;;15.10;98.50;;;;;;4938910;29;20205;-93
2023/09/08 11:09:10;;;;;;;1.00;0.50;;;15.00;98.80;;;;;;4938385;29;20307;-92
2023/09/08 11:11:41;;;;;;;4.40;0.75;;;15.00;98.80;;;;;;4938288;29;20232;-93
2023/09/08 11:14:12;;;;;;;1.30;0.55;;;15.00;98.50;;;;;;4954934;29;20627;-92
2023/09/08 11:16:45;;;;;;;1.08;0.47;;;14.90;99.20;;;;;;4953719;29;20200;-93
2023/09/08 11:19:16;;;;;;;1.42;0.50;;;14.90;99.50;;;;;;4938592;29;20263;-93
2023/09/08 11:21:51;;;;;;;1.33;0.57;;;14.90;99.60;;;;;;4938395;29;20215;-92
2023/09/08 11:24:22;;;;;;;1.23;0.55;;;14.90;99.30;;;;;;4938304;29;20226;-93
2023/09/08 11:26:56;;;;;;;0.55;0.45;;;14.80;99.40;;;;;;4938482;29;20213;-92
2023/09/08 11:29:29;;;;;;;1.35;0.55;;;14.80;99.90;;;;;;4939684;29;20208;-92
2023/09/08 11:32:01;;;;;;;1.33;0.70;;;14.80;99.90;;;;;;4957181;29;20201;-91
2023/09/08 11:34:33;;;;;;;1.35;0.50;;;14.80;99.90;;;;;;4955914;28;20238;-92
2023/09/08 11:37:12;;;;;;;1.70;0.60;;;14.80;99.90;;;;;;4957221;29;20667;-92
2023/09/08 11:39:44;;;;;;;0.70;0.50;;;14.80;99.90;;;;;;4957237;29;20231;-92
2023/09/08 11:42:16;;;;;;;0.63;0.43;;;14.80;99.90;;;;;;4971378;29;20200;-92
2023/09/08 11:44:47;;;;;;;1.92;0.52;;;14.80;99.90;;;;;;4957630;29;20185;-92
2023/09/08 11:47:20;;;;;;;1.30;0.55;;;14.70;99.90;;;;;;4957418;28;20736;-93
2023/09/08 11:49:51;;;;;;;1.45;0.60;;;14.70;99.90;;;;;;4953130;29;20207;-93
2023/09/08 11:52:26;;;;;;;1.88;0.65;;;14.70;99.90;;;;;;4944560;29;20207;-92
2023/09/08 11:54:58;;;;;;;1.52;0.60;;;14.60;99.90;;;;;;4961357;29;20566;-92
2023/09/08 11:57:29;;;;;;;2.42;0.50;;;14.60;99.90;;;;;;4954322;29;20204;-89
2023/09/08 12:00:05;;;;;;;2.80;0.70;;;14.60;99.90;;;;;;4965755;29;20196;-91
2023/09/08 12:03:11;;;;;;;2.55;0.70;;;14.60;99.90;;;;;;4964518;29;20196;-92
2023/09/08 12:05:58;;;;;;;2.25;0.85;;;14.60;99.90;;;;;;4937877;29;20660;-91
2023/09/08 12:08:33;;;;;;;2.72;0.70;;;14.60;99.90;;;;;;4943942;29;20576;-90
2023/09/08 12:11:04;;;;;;;2.08;0.60;;;14.50;99.90;;;;;;4964868;29;20199;-91
2023/09/08 12:13:35;;;;;;;2.88;0.93;;;14.60;99.90;;;;;;4960076;29;20306;-90
2023/09/08 12:16:19;;;;;;;1.80;0.70;;;14.50;99.90;;;;;;4957188;29;20203;-91
2023/09/08 12:18:52;;;;;;;2.97;0.98;;;14.50;99.20;;;;;;4946520;29;20648;-90
2023/09/08 12:21:23;;;;;;;2.25;0.80;;;14.50;99.70;;;;;;4957714;29;20215;-89
2023/09/08 12:23:57;;;;;;;4.65;1.10;;;14.50;99.30;;;;;;4956806;29;20294;-87
2023/09/08 12:26:29;;;;;;;3.15;0.73;;;14.50;99.70;;;;;;4957318;29;20239;-91
2023/09/08 12:29:00;;;;;;;2.00;0.85;;;14.50;99.90;;;;;;4950292;29;20216;-91
2023/09/08 12:31:31;;;;;;;1.42;0.70;;;14.60;99.30;;;;;;4939030;29;20203;-91
2023/09/08 12:34:03;;;;;;;3.35;0.70;;;14.50;99.20;;;;;;4954202;29;20231;-92
2023/09/08 12:36:34;;;;;;;2.50;0.88;;;14.50;98.70;;;;;;4957341;29;20207;-91
2023/09/08 12:39:07;;;;;;;3.30;0.88;;;14.50;98.70;;;;;;4941724;29;20318;-91
2023/09/08 12:41:39;;;;;;;2.22;0.80;;;14.40;99.30;;;;;;4939081;29;20217;-90
2023/09/08 12:44:10;;;;;;;2.42;0.70;;;14.50;99.40;;;;;;4939587;29;20211;-89
2023/09/08 12:46:42;;;;;;;3.30;1.00;;;14.50;98.80;;;;;;4927989;29;20326;-91
2023/09/08 12:49:13;;;;;;;2.92;1.00;;;14.50;99.20;;;;;;4966137;28;20703;-90
2023/09/08 12:51:44;;;;;;;3.88;0.60;;;14.50;99.10;;;;;;4936759;29;20223;-91
2023/09/08 12:54:18;;;;;;;1.70;0.80;;;14.60;99.10;;;;;;4954471;28;20730;-92
2023/09/08 12:56:50;;;;;;;2.40;0.70;;;14.50;99.40;;;;;;4950593;29;20202;-91
2023/09/08 12:59:21;;;;;;;3.05;0.70;;;14.50;99.60;;;;;;4954078;29;20282;-91
2023/09/08 13:01:52;;;;;;;2.75;0.77;;;14.60;99.10;;;;;;4940700;29;20584;-91
2023/09/08 13:04:25;;;;;;;3.65;0.80;;;14.50;99.00;;;;;;4943152;29;20196;-89
2023/09/08 13:06:58;;;;;;;1.67;0.60;;;14.40;98.60;;;;;;4954211;29;20207;-91
2023/09/08 13:09:30;;;;;;;4.10;0.70;;;14.40;99.00;;;;;;4938357;29;20196;-91
2023/09/08 13:12:01;;;;;;;2.60;0.70;;;14.40;99.20;;;;;;4955000;29;20579;-89
2023/09/08 13:14:32;;;;;;;3.53;0.90;;;14.40;99.20;;;;;;4956540;29;20626;-91
2023/09/08 13:17:03;;;;;;;2.30;0.60;;;14.40;98.80;;;;;;4949790;29;20694;-93